Time;durP1;ratioP1;P1;durP2;ratioP2;P2;SDS_P1;SDS_P2;PMS_P1;PMS_P2;Temp;Humidity;BMP_temperature;BMP_pressure;BME280_temperature;BME280_humidity;BME280_pressure;Samples;Min_cycle;Max_cycle;Signal;HPM_P1;HPM_P2
2021/07/02 00:01:27;;;;;;;5.20;4.70;;;14.50;97.50;;;;;;6194497;23;20206;-93
2021/07/02 00:03:54;;;;;;;6.85;5.00;;;14.40;97.50;;;;;;6196792;23;20190;-94
2021/07/02 00:06:21;;;;;;;5.45;4.85;;;14.40;97.80;;;;;;6195387;23;20202;-92
2021/07/02 00:08:48;;;;;;;6.55;5.28;;;14.40;98.00;;;;;;6195701;23;20221;-93
2021/07/02 00:11:15;;;;;;;5.65;4.90;;;14.40;97.90;;;;;;6194899;23;20277;-93
2021/07/02 00:16:26;;;;;;;6.20;4.50;;;14.40;97.90;;;;;;6197138;23;20190;-92
2021/07/02 00:18:53;;;;;;;6.68;4.88;;;14.40;97.90;;;;;;6194073;23;20187;-93
2021/07/02 00:21:20;;;;;;;7.70;4.97;;;14.40;97.70;;;;;;6192641;23;20217;-94
2021/07/02 00:23:47;;;;;;;6.03;5.40;;;14.40;97.60;;;;;;6193910;23;20209;-93
2021/07/02 00:26:14;;;;;;;6.75;5.00;;;14.40;97.40;;;;;;6195337;23;20218;-94
2021/07/02 00:28:41;;;;;;;6.90;5.18;;;14.30;97.70;;;;;;6195458;23;20245;-92
2021/07/02 00:31:08;;;;;;;8.27;5.45;;;14.30;98.00;;;;;;6192655;23;20252;-93
2021/07/02 00:36:21;;;;;;;11.32;4.93;;;14.30;97.80;;;;;;6193518;23;20213;-93
2021/07/02 00:38:48;;;;;;;6.13;4.90;;;14.30;98.00;;;;;;6193143;23;20697;-94
2021/07/02 00:53:04;;;;;;;5.43;4.93;;;14.30;97.90;;;;;;6192642;23;20205;-93
2021/07/02 00:59:04;;;;;;;7.68;4.55;;;14.40;97.50;;;;;;6190578;23;20225;-92
2021/07/02 01:01:31;;;;;;;5.93;5.00;;;14.40;97.70;;;;;;6191487;23;20210;-93
2021/07/02 01:03:58;;;;;;;6.10;4.80;;;14.40;97.80;;;;;;6192290;23;20181;-94
2021/07/02 01:09:30;;;;;;;5.65;5.00;;;14.30;98.10;;;;;;6192057;23;20210;-93
2021/07/02 01:17:20;;;;;;;6.20;5.07;;;14.30;97.80;;;;;;6186809;23;20266;-93
2021/07/02 01:25:13;;;;;;;6.65;5.30;;;14.30;98.00;;;;;;6191160;23;20198;-93
2021/07/02 01:33:24;;;;;;;7.13;5.38;;;14.20;98.50;;;;;;6191532;23;20167;-93
2021/07/02 01:35:51;;;;;;;7.03;5.80;;;14.10;98.40;;;;;;6192024;23;20210;-92
2021/07/02 01:41:01;;;;;;;6.20;5.10;;;14.30;98.50;;;;;;6175902;23;20219;-93
2021/07/02 01:43:28;;;;;;;5.53;4.97;;;14.30;98.40;;;;;;6192978;23;20457;-93
2021/07/02 01:48:37;;;;;;;7.50;5.05;;;14.10;98.80;;;;;;6189047;23;20202;-93
2021/07/02 01:51:04;;;;;;;6.60;5.28;;;14.10;98.70;;;;;;6191587;23;20226;-93
2021/07/02 01:53:33;;;;;;;7.38;5.40;;;14.10;98.70;;;;;;6193517;23;20201;-94
2021/07/02 01:56:00;;;;;;;5.57;5.07;;;14.00;98.80;;;;;;6192153;23;20202;-93
2021/07/02 01:58:27;;;;;;;6.90;5.13;;;14.00;99.00;;;;;;6192614;23;20209;-92
2021/07/02 02:00:54;;;;;;;6.63;4.90;;;13.90;99.10;;;;;;6198006;23;20206;-93
2021/07/02 02:03:21;;;;;;;6.78;5.15;;;14.00;99.00;;;;;;6193828;23;20240;-93
2021/07/02 02:05:49;;;;;;;6.88;5.60;;;14.00;98.90;;;;;;6193094;23;20207;-93
2021/07/02 02:08:16;;;;;;;6.13;5.53;;;13.90;99.00;;;;;;6194594;23;20285;-93
2021/07/02 02:13:25;;;;;;;7.90;4.95;;;13.90;99.00;;;;;;6193603;23;20170;-93
2021/07/02 02:15:52;;;;;;;5.90;5.10;;;13.90;99.00;;;;;;6167881;23;20206;-93
2021/07/02 02:18:19;;;;;;;5.50;5.00;;;13.90;99.00;;;;;;6196263;23;20166;-93
2021/07/02 02:20:46;;;;;;;5.90;5.28;;;13.80;98.90;;;;;;6195574;23;20213;-93
2021/07/02 02:23:13;;;;;;;6.05;5.45;;;13.80;99.00;;;;;;6197142;23;20178;-93
2021/07/02 02:25:40;;;;;;;5.78;5.18;;;13.80;99.00;;;;;;6198719;23;20202;-93
2021/07/02 02:30:50;;;;;;;6.55;5.60;;;13.70;99.10;;;;;;6195643;23;20522;-93
2021/07/02 02:33:17;;;;;;;6.50;5.40;;;13.60;99.40;;;;;;6201710;23;20186;-93
2021/07/02 02:35:44;;;;;;;7.43;6.03;;;13.60;99.60;;;;;;6200254;23;20209;-94
2021/07/02 02:38:11;;;;;;;6.10;5.50;;;13.60;99.60;;;;;;6203784;23;20186;-93
2021/07/02 02:46:22;;;;;;;7.38;6.10;;;13.60;99.40;;;;;;6190059;23;20185;-93
2021/07/02 02:48:49;;;;;;;6.40;5.80;;;13.60;99.40;;;;;;6200729;23;20186;-93
2021/07/02 02:51:16;;;;;;;6.35;5.25;;;13.70;99.30;;;;;;6202462;23;20207;-93
2021/07/02 02:53:44;;;;;;;7.97;5.30;;;13.60;99.20;;;;;;6204747;23;20195;-93
2021/07/02 02:56:11;;;;;;;5.78;5.15;;;13.60;99.20;;;;;;6204824;23;20528;-92
2021/07/02 03:01:44;;;;;;;6.65;5.53;;;13.60;99.40;;;;;;6208142;23;20525;-94
2021/07/02 03:04:11;;;;;;;6.88;5.65;;;13.50;99.40;;;;;;6208446;23;20598;-93
2021/07/02 03:09:19;;;;;;;6.47;5.63;;;13.40;99.60;;;;;;6170253;23;20206;-92
2021/07/02 03:11:50;;;;;;;10.25;6.60;;;13.40;99.70;;;;;;6205839;23;20181;-93
2021/07/02 03:17:29;;;;;;;6.50;5.90;;;13.30;99.90;;;;;;6088943;23;20245;-93
2021/07/02 03:36:55;;;;;;;6.72;6.03;;;13.50;99.90;;;;;;6190266;23;20175;-92
2021/07/02 03:39:22;;;;;;;8.27;6.30;;;13.60;99.90;;;;;;6197972;23;20163;-93
2021/07/02 03:41:49;;;;;;;7.38;6.32;;;13.70;99.90;;;;;;6170870;23;20182;-93
2021/07/02 03:44:16;;;;;;;7.22;5.93;;;13.70;99.90;;;;;;6198716;23;20238;-93
2021/07/02 03:46:44;;;;;;;6.47;5.75;;;13.80;99.90;;;;;;6196182;23;20206;-92
2021/07/02 03:49:11;;;;;;;6.93;5.95;;;13.90;99.90;;;;;;6195804;23;20202;-93
2021/07/02 03:51:38;;;;;;;9.00;6.47;;;14.00;99.60;;;;;;6195871;23;20206;-93
2021/07/02 03:54:05;;;;;;;6.50;5.90;;;14.00;99.30;;;;;;6180788;23;20182;-92
2021/07/02 03:56:32;;;;;;;6.57;5.90;;;14.10;99.20;;;;;;6196350;23;20229;-93
2021/07/02 03:58:59;;;;;;;6.47;5.85;;;14.10;99.10;;;;;;6194077;23;20171;-93
2021/07/02 04:01:26;;;;;;;6.32;5.72;;;14.10;99.30;;;;;;6192822;23;20207;-92
2021/07/02 04:03:54;;;;;;;6.22;5.60;;;14.10;99.20;;;;;;6192473;23;20225;-93
2021/07/02 04:06:21;;;;;;;8.18;6.13;;;14.10;99.20;;;;;;6189524;23;20720;-92
2021/07/02 04:08:48;;;;;;;7.20;6.47;;;14.10;99.20;;;;;;6187552;23;20234;-93
2021/07/02 04:11:15;;;;;;;7.00;5.93;;;14.20;98.90;;;;;;6190195;23;20206;-92
2021/07/02 04:13:42;;;;;;;6.93;6.20;;;14.20;98.80;;;;;;6187781;23;20206;-93
2021/07/02 04:16:09;;;;;;;8.05;6.43;;;14.30;99.10;;;;;;6186707;23;20242;-91
2021/07/02 04:18:36;;;;;;;7.75;6.38;;;14.30;99.00;;;;;;6187064;23;20214;-93
2021/07/02 04:21:06;;;;;;;6.60;5.95;;;14.30;98.90;;;;;;6185492;23;20206;-93
2021/07/02 04:23:33;;;;;;;6.65;5.95;;;14.50;98.70;;;;;;6186237;23;20348;-92
2021/07/02 04:26:00;;;;;;;6.22;5.60;;;14.50;98.40;;;;;;6185757;23;20226;-92
2021/07/02 04:28:26;;;;;;;7.00;6.30;;;14.60;98.10;;;;;;6188536;23;20198;-92
2021/07/02 04:30:53;;;;;;;7.75;5.90;;;14.70;97.90;;;;;;6161401;23;20534;-92
2021/07/02 04:33:20;;;;;;;6.70;5.82;;;14.70;97.80;;;;;;6187379;23;20174;-92
2021/07/02 04:35:47;;;;;;;6.20;5.60;;;14.70;97.90;;;;;;6187667;23;20206;-93
2021/07/02 04:38:16;;;;;;;6.50;5.85;;;14.70;98.20;;;;;;6186244;23;20214;-92
2021/07/02 04:41:03;;;;;;;7.70;6.20;;;14.80;98.10;;;;;;6171195;23;20202;-91
2021/07/02 04:43:30;;;;;;;6.38;5.70;;;14.70;97.80;;;;;;6189754;23;20198;-92
2021/07/02 04:45:57;;;;;;;6.75;6.00;;;14.90;97.90;;;;;;6187853;23;20273;-92
2021/07/02 04:48:24;;;;;;;7.63;6.25;;;14.90;97.40;;;;;;6189299;23;20185;-91
2021/07/02 04:50:53;;;;;;;6.47;5.88;;;14.90;96.90;;;;;;6188237;23;20233;-92
2021/07/02 04:56:02;;;;;;;9.10;6.00;;;15.10;96.90;;;;;;6187479;23;20213;-92
2021/07/02 04:58:29;;;;;;;6.40;5.78;;;15.10;96.90;;;;;;6189213;23;20182;-92
2021/07/02 05:00:58;;;;;;;7.32;5.70;;;15.20;97.00;;;;;;6189232;23;20199;-92
2021/07/02 05:03:25;;;;;;;6.53;5.72;;;15.20;97.00;;;;;;6189696;23;20163;-92
2021/07/02 05:05:52;;;;;;;7.82;6.18;;;15.30;97.00;;;;;;6189743;23;20217;-92
2021/07/02 05:08:20;;;;;;;6.30;5.70;;;15.30;96.60;;;;;;6190446;23;20220;-92
2021/07/02 05:10:48;;;;;;;7.60;6.05;;;15.30;96.30;;;;;;6190093;23;20209;-94
2021/07/02 05:13:15;;;;;;;5.97;5.38;;;15.40;96.20;;;;;;6197716;23;20631;-92
2021/07/02 05:16:02;;;;;;;5.82;4.97;;;15.40;96.30;;;;;;6202111;23;20210;-93
2021/07/02 05:18:29;;;;;;;6.20;5.60;;;15.40;96.30;;;;;;6199231;23;20182;-93
2021/07/02 05:20:56;;;;;;;6.10;5.50;;;15.50;96.30;;;;;;6191528;23;20244;-92
2021/07/02 05:23:23;;;;;;;6.57;5.60;;;15.60;96.20;;;;;;6197989;23;20191;-93
2021/07/02 05:25:53;;;;;;;6.80;5.88;;;15.70;96.10;;;;;;6202719;23;20202;-92
2021/07/02 05:37:13;;;;;;;9.52;6.47;;;16.00;94.50;;;;;;6173650;23;20175;-92
2021/07/02 05:46:07;;;;;;;5.90;5.35;;;16.20;94.00;;;;;;6157834;23;20610;-94
2021/07/02 05:53:56;;;;;;;8.02;6.07;;;16.30;93.30;;;;;;6196588;22;20205;-94
2021/07/02 05:56:29;;;;;;;7.10;5.70;;;16.40;93.20;;;;;;6255497;22;20208;-94
2021/07/02 06:02:07;;;;;;;7.45;5.60;;;16.50;92.30;;;;;;6175561;23;20178;-95
2021/07/02 06:20:43;;;;;;;6.30;5.50;;;17.10;90.80;;;;;;6132332;23;20205;-93
2021/07/02 06:23:10;;;;;;;7.07;5.68;;;17.20;90.40;;;;;;6246712;23;20173;-93
2021/07/02 06:25:37;;;;;;;7.97;5.50;;;17.40;88.40;;;;;;6246357;22;20684;-93
2021/07/02 06:28:04;;;;;;;8.32;5.70;;;17.50;87.80;;;;;;6197973;23;20201;-93
2021/07/02 06:30:35;;;;;;;6.30;5.63;;;17.60;87.10;;;;;;6222779;23;20243;-93
2021/07/02 06:33:04;;;;;;;8.98;6.40;;;17.70;86.30;;;;;;6249468;23;20181;-93
2021/07/02 06:35:30;;;;;;;8.07;6.35;;;17.90;84.40;;;;;;6250819;22;20292;-92
2021/07/02 06:37:57;;;;;;;7.45;5.88;;;17.90;82.70;;;;;;6250006;23;20172;-93
2021/07/02 06:40:24;;;;;;;6.07;5.13;;;18.00;81.60;;;;;;6250821;22;20729;-93
2021/07/02 06:42:51;;;;;;;9.05;5.93;;;18.20;79.50;;;;;;6250241;23;20625;-94
2021/07/02 06:45:22;;;;;;;6.95;5.72;;;18.20;77.20;;;;;;6249266;22;20669;-93
2021/07/02 06:53:20;;;;;;;5.80;5.20;;;18.50;73.00;;;;;;6245257;23;20189;-93
2021/07/02 06:55:51;;;;;;;7.30;5.30;;;18.60;72.90;;;;;;6247937;22;20695;-93
2021/07/02 07:01:17;;;;;;;7.40;5.40;;;18.90;71.90;;;;;;6192669;22;20183;-93
2021/07/02 07:03:44;;;;;;;6.05;5.45;;;18.80;62.90;;;;;;6249223;23;20236;-93
2021/07/02 07:06:14;;;;;;;6.25;5.28;;;18.90;65.00;;;;;;6240331;22;20205;-93
2021/07/02 07:08:42;;;;;;;7.63;5.70;;;19.10;61.80;;;;;;6249179;23;20225;-92
2021/07/02 07:11:09;;;;;;;5.95;5.25;;;19.20;61.10;;;;;;6250751;22;20594;-92
2021/07/02 07:13:38;;;;;;;7.53;5.22;;;19.50;60.90;;;;;;6252995;23;20197;-91
2021/07/02 07:16:05;;;;;;;5.82;4.70;;;19.60;60.00;;;;;;6256229;22;20284;-91
2021/07/02 07:18:32;;;;;;;8.30;5.60;;;19.70;58.50;;;;;;6258997;23;20173;-91
2021/07/02 07:20:59;;;;;;;7.10;4.88;;;19.80;58.40;;;;;;6258097;22;20212;-91
2021/07/02 07:23:31;;;;;;;7.55;5.30;;;19.80;55.80;;;;;;6258574;23;20227;-91
2021/07/02 07:26:03;;;;;;;7.93;5.38;;;19.70;56.40;;;;;;6254905;22;20205;-92
2021/07/02 07:28:31;;;;;;;7.80;6.20;;;19.90;57.60;;;;;;6256698;23;20162;-92
2021/07/02 07:30:58;;;;;;;7.22;5.65;;;19.90;55.90;;;;;;6264266;22;20209;-92
2021/07/02 07:39:24;;;;;;;6.55;5.13;;;19.90;55.80;;;;;;6250695;23;20169;-91
2021/07/02 07:41:50;;;;;;;5.65;5.03;;;20.30;54.70;;;;;;6250543;23;20676;-92
2021/07/02 07:46:58;;;;;;;5.50;5.00;;;20.60;50.00;;;;;;6246600;23;20173;-91
2021/07/02 07:49:26;;;;;;;7.32;5.22;;;20.90;46.50;;;;;;6246305;23;20868;-90
2021/07/02 07:51:56;;;;;;;10.75;4.90;;;20.80;47.60;;;;;;6245260;23;20280;-90
2021/07/02 07:54:25;;;;;;;9.73;5.10;;;21.00;49.20;;;;;;6246832;23;20197;-91
2021/07/02 07:56:55;;;;;;;7.38;5.15;;;21.30;47.60;;;;;;6230799;22;20662;-87
2021/07/02 07:59:25;;;;;;;5.85;5.25;;;21.30;45.30;;;;;;6254305;23;20200;-93
2021/07/02 08:01:52;;;;;;;10.65;5.03;;;21.20;45.50;;;;;;6248237;22;20205;-93
2021/07/02 08:04:29;;;;;;;8.15;5.00;;;21.00;47.70;;;;;;6249116;23;20208;-92
2021/07/02 08:06:56;;;;;;;7.05;5.40;;;21.00;47.90;;;;;;6248931;23;20211;-90
2021/07/02 08:09:25;;;;;;;6.13;5.50;;;21.10;47.10;;;;;;6251239;23;20492;-92
2021/07/02 08:11:53;;;;;;;6.20;5.57;;;21.40;45.20;;;;;;6249841;22;20276;-90
2021/07/02 08:14:20;;;;;;;6.60;5.45;;;21.60;45.30;;;;;;6251504;23;20625;-91
2021/07/02 08:16:47;;;;;;;5.93;5.05;;;21.60;42.30;;;;;;6249017;22;20231;-90
2021/07/02 08:19:14;;;;;;;6.78;5.82;;;21.70;45.30;;;;;;6252250;23;20235;-91
2021/07/02 08:21:40;;;;;;;7.57;5.57;;;21.30;44.20;;;;;;6250669;22;20205;-92
2021/07/02 08:24:07;;;;;;;5.80;4.85;;;21.00;46.60;;;;;;6250790;23;20217;-93
2021/07/02 08:26:36;;;;;;;6.95;5.20;;;20.80;47.50;;;;;;6251008;22;20200;-92
2021/07/02 08:31:47;;;;;;;6.03;5.18;;;20.90;51.50;;;;;;6250541;22;20253;-92
2021/07/02 08:34:17;;;;;;;6.00;5.40;;;20.80;48.90;;;;;;6250098;23;20209;-92
2021/07/02 08:36:51;;;;;;;7.18;5.20;;;20.90;48.10;;;;;;6237760;22;20575;-92
2021/07/02 08:39:18;;;;;;;7.43;5.00;;;20.90;48.50;;;;;;6246293;23;20205;-91
2021/07/02 08:41:47;;;;;;;5.78;5.18;;;21.20;48.90;;;;;;6245439;22;20284;-92
2021/07/02 08:44:14;;;;;;;5.38;4.88;;;21.30;46.30;;;;;;6247774;23;20201;-92
2021/07/02 08:46:42;;;;;;;13.18;11.75;;;21.30;47.00;;;;;;6247711;22;20676;-92
2021/07/02 08:49:40;;;;;;;8.18;5.25;;;21.30;46.40;;;;;;6249844;23;20212;-93
2021/07/02 08:52:23;;;;;;;6.18;5.30;;;21.40;46.50;;;;;;6247855;23;20216;-92
2021/07/02 08:54:50;;;;;;;7.80;4.95;;;21.10;46.90;;;;;;6249029;22;20269;-91
2021/07/02 09:03:37;;;;;;;5.78;5.07;;;20.90;50.40;;;;;;6222195;23;20175;-92
2021/07/02 09:06:22;;;;;;;5.93;5.30;;;20.70;47.40;;;;;;6250283;22;20201;-93
2021/07/02 09:11:40;;;;;;;5.38;4.88;;;21.80;40.80;;;;;;6228103;22;20208;-93
2021/07/02 09:14:10;;;;;;;6.10;4.63;;;22.10;39.60;;;;;;6251151;23;20169;-91
2021/07/02 09:17:08;;;;;;;6.55;5.60;;;23.10;38.60;;;;;;6248087;23;20181;-88
2021/07/02 09:19:35;;;;;;;5.60;5.10;;;23.80;35.30;;;;;;6245935;22;20171;-88
2021/07/02 09:22:17;;;;;;;5.80;5.20;;;24.00;36.80;;;;;;6245698;23;20181;-90
2021/07/02 09:24:46;;;;;;;6.90;6.00;;;25.60;30.90;;;;;;6245004;22;20237;-90
2021/07/02 09:27:33;;;;;;;24.92;22.48;;;26.10;31.10;;;;;;6245941;23;20173;-90
2021/07/02 09:30:06;;;;;;;6.72;6.13;;;27.60;27.00;;;;;;6246975;22;20223;-89
2021/07/02 09:32:34;;;;;;;6.50;5.75;;;29.10;24.10;;;;;;6247809;23;20173;-89
2021/07/02 09:35:02;;;;;;;5.72;5.18;;;30.40;20.10;;;;;;6247225;22;20204;-89
2021/07/02 09:37:32;;;;;;;6.97;5.30;;;31.70;19.40;;;;;;6249362;23;20209;-89
2021/07/02 09:40:10;;;;;;;6.13;5.35;;;32.50;17.70;;;;;;6245254;22;20224;-90
2021/07/02 09:42:38;;;;;;;7.07;5.40;;;32.30;17.70;;;;;;6245653;23;20732;-90
2021/07/02 09:45:13;;;;;;;6.32;5.65;;;31.10;17.10;;;;;;6245624;22;20244;-91
2021/07/02 09:47:42;;;;;;;5.20;4.70;;;29.20;18.60;;;;;;6244465;23;20219;-90
2021/07/02 09:50:31;;;;;;;6.25;5.57;;;28.10;22.80;;;;;;6243932;22;20255;-91
2021/07/02 09:52:59;;;;;;;6.65;5.25;;;27.30;24.70;;;;;;6244785;23;20239;-90
2021/07/02 09:55:28;;;;;;;5.57;5.03;;;26.70;25.50;;;;;;6243713;22;20208;-90
2021/07/02 09:58:05;;;;;;;12.35;11.23;;;27.20;25.80;;;;;;6244984;23;20176;-90
2021/07/02 10:00:39;;;;;;;6.00;5.53;;;29.30;20.60;;;;;;6244210;22;20236;-90
2021/07/02 10:03:07;;;;;;;6.80;6.13;;;31.00;17.90;;;;;;6244559;23;20246;-90
2021/07/02 10:05:45;;;;;;;5.65;5.10;;;31.90;17.50;;;;;;6244826;22;20197;-91
2021/07/02 10:08:13;;;;;;;5.25;4.85;;;32.10;14.90;;;;;;6244285;23;20465;-90
2021/07/02 10:10:46;;;;;;;5.93;5.43;;;32.10;17.60;;;;;;6243127;22;20663;-90
2021/07/02 10:13:14;;;;;;;5.28;4.88;;;31.70;17.30;;;;;;6245343;23;20245;-90
2021/07/02 10:15:44;;;;;;;5.80;5.30;;;32.30;16.10;;;;;;6243416;22;20279;-88
2021/07/02 10:18:13;;;;;;;5.35;4.93;;;32.20;15.40;;;;;;6245459;23;20176;-88
2021/07/02 10:20:46;;;;;;;4.97;4.57;;;32.00;17.60;;;;;;6244408;22;20206;-91
2021/07/02 10:23:26;;;;;;;7.97;4.65;;;31.60;16.70;;;;;;6218600;23;20176;-91
2021/07/02 10:26:09;;;;;;;5.15;4.65;;;32.20;16.90;;;;;;6244471;22;20978;-91
2021/07/02 10:28:38;;;;;;;5.05;4.65;;;32.80;15.20;;;;;;6244953;23;20176;-91
2021/07/02 10:33:50;;;;;;;4.95;4.38;;;33.30;14.30;;;;;;6243948;23;20165;-86
2021/07/02 10:36:18;;;;;;;5.07;4.68;;;30.40;16.80;;;;;;6243342;22;20271;-87
2021/07/02 10:38:46;;;;;;;5.57;4.82;;;29.60;17.40;;;;;;6244644;23;20558;-87
2021/07/02 10:41:15;;;;;;;5.50;5.10;;;29.60;19.70;;;;;;6243935;22;20258;-87
2021/07/02 10:44:01;;;;;;;6.90;4.93;;;30.30;22.80;;;;;;6244317;23;20294;-87
2021/07/02 10:46:30;;;;;;;7.15;4.75;;;30.30;16.80;;;;;;6243471;22;20275;-88
2021/07/02 10:48:59;;;;;;;4.97;4.50;;;28.90;20.00;;;;;;6246004;23;20204;-88
2021/07/02 10:51:54;;;;;;;5.47;4.97;;;27.50;24.50;;;;;;6246028;22;20270;-86
2021/07/02 10:54:29;;;;;;;5.85;5.25;;;25.80;24.90;;;;;;6244073;23;20805;-87
2021/07/02 10:57:19;;;;;;;4.63;4.13;;;25.10;26.70;;;;;;6243589;23;20515;-90
2021/07/02 11:00:10;;;;;;;5.72;4.53;;;24.50;29.60;;;;;;6241922;22;20481;-89
2021/07/02 11:02:40;;;;;;;5.80;4.70;;;24.00;30.20;;;;;;6244806;23;20191;-89
2021/07/02 11:05:29;;;;;;;5.93;4.10;;;24.20;29.30;;;;;;6242615;22;20209;-89
2021/07/02 11:07:56;;;;;;;5.45;4.95;;;24.40;28.40;;;;;;6245080;23;20169;-89
2021/07/02 11:10:23;;;;;;;4.80;4.10;;;24.40;30.40;;;;;;6243787;22;20201;-89
2021/07/02 11:13:04;;;;;;;4.35;3.60;;;24.30;28.70;;;;;;6244249;23;20252;-91
2021/07/02 11:15:32;;;;;;;5.68;4.30;;;24.00;29.70;;;;;;6243498;22;20205;-90
2021/07/02 11:18:15;;;;;;;5.05;4.15;;;23.60;31.40;;;;;;6248359;23;20173;-90
2021/07/02 11:20:43;;;;;;;6.35;4.53;;;23.90;31.50;;;;;;6247861;22;20276;-90
2021/07/02 11:23:18;;;;;;;4.50;4.10;;;24.00;31.20;;;;;;6250964;23;20173;-90
2021/07/02 11:26:00;;;;;;;5.20;4.70;;;23.60;29.40;;;;;;6244187;22;20212;-90
2021/07/02 11:31:19;;;;;;;4.57;4.18;;;23.80;30.20;;;;;;6239474;22;20201;-91
2021/07/02 11:33:57;;;;;;;7.00;4.57;;;23.50;30.80;;;;;;6244527;23;20169;-90
2021/07/02 11:36:24;;;;;;;6.43;4.35;;;23.60;32.90;;;;;;6245521;22;20583;-91
2021/07/02 11:38:54;;;;;;;5.40;4.07;;;23.50;30.10;;;;;;6245767;23;20585;-91
2021/07/02 11:41:26;;;;;;;5.05;4.15;;;23.30;30.80;;;;;;6242306;22;20209;-90
2021/07/02 11:43:56;;;;;;;4.35;3.70;;;23.30;32.20;;;;;;6245678;23;20170;-91
2021/07/02 11:46:23;;;;;;;4.30;3.90;;;23.70;29.40;;;;;;6243551;22;20204;-91
2021/07/02 11:48:55;;;;;;;4.00;3.70;;;24.10;29.10;;;;;;6244896;23;20543;-91
2021/07/02 11:51:24;;;;;;;4.50;3.97;;;24.30;26.90;;;;;;6244758;22;20300;-90
2021/07/02 11:53:53;;;;;;;5.05;4.55;;;24.10;27.70;;;;;;6244318;23;20200;-91
2021/07/02 11:56:23;;;;;;;4.05;3.67;;;23.90;29.60;;;;;;6243685;22;20229;-91
2021/07/02 11:58:51;;;;;;;6.55;3.58;;;24.00;29.30;;;;;;6245004;23;20741;-91
2021/07/02 12:01:29;;;;;;;4.70;4.20;;;23.80;27.90;;;;;;6244998;22;20593;-91
2021/07/02 12:04:02;;;;;;;4.28;3.88;;;24.10;31.40;;;;;;6245779;23;20244;-94
2021/07/02 12:06:31;;;;;;;4.60;3.90;;;24.10;30.80;;;;;;6216148;23;20201;-91
2021/07/02 12:09:00;;;;;;;4.68;3.60;;;24.30;28.70;;;;;;6243328;23;20256;-90
2021/07/02 12:11:33;;;;;;;6.55;4.85;;;24.10;27.70;;;;;;6216165;23;20629;-91
2021/07/02 12:14:00;;;;;;;4.68;3.75;;;23.50;28.80;;;;;;6244888;23;20244;-91
2021/07/02 12:16:34;;;;;;;4.40;4.00;;;23.40;30.20;;;;;;6242764;22;20571;-91
2021/07/02 12:19:04;;;;;;;4.20;3.80;;;23.60;30.00;;;;;;6217733;23;20193;-91
2021/07/02 12:21:33;;;;;;;4.82;3.92;;;23.70;30.30;;;;;;6242752;22;20197;-91
2021/07/02 12:26:51;;;;;;;5.90;4.22;;;23.90;30.00;;;;;;6243951;22;20619;-91
2021/07/02 12:29:18;;;;;;;4.28;3.92;;;24.20;28.80;;;;;;6244424;23;20606;-91
2021/07/02 12:31:48;;;;;;;6.93;5.40;;;24.20;27.90;;;;;;6191616;23;20201;-90
2021/07/02 12:34:22;;;;;;;4.35;3.65;;;24.40;28.70;;;;;;6217368;23;20208;-90
2021/07/02 12:36:59;;;;;;;3.67;3.38;;;24.20;26.80;;;;;;6244082;22;20505;-90
2021/07/02 12:39:30;;;;;;;4.30;3.75;;;23.90;27.60;;;;;;6246289;23;20180;-91
2021/07/02 12:42:00;;;;;;;4.72;3.97;;;23.80;27.80;;;;;;6245334;23;20182;-90
2021/07/02 12:44:29;;;;;;;5.25;3.80;;;23.80;28.60;;;;;;6245582;23;20172;-90
2021/07/02 12:46:58;;;;;;;6.10;4.05;;;23.70;26.70;;;;;;6244524;22;20276;-90
2021/07/02 12:49:36;;;;;;;6.25;3.80;;;23.60;28.60;;;;;;6243773;23;20201;-91
2021/07/02 12:54:59;;;;;;;5.78;4.03;;;23.70;27.80;;;;;;6245479;22;20271;-90
2021/07/02 12:57:30;;;;;;;5.28;4.05;;;23.60;27.70;;;;;;6246095;23;20195;-90
2021/07/02 13:00:00;;;;;;;4.95;3.55;;;23.70;29.00;;;;;;6243225;22;20268;-90
2021/07/02 13:02:33;;;;;;;4.18;3.78;;;23.60;28.20;;;;;;6246080;23;20169;-90
2021/07/02 13:05:06;;;;;;;6.13;3.55;;;23.50;26.70;;;;;;6245481;22;20221;-89
2021/07/02 13:07:55;;;;;;;3.92;3.50;;;23.40;28.10;;;;;;6245678;23;20244;-92
2021/07/02 13:10:46;;;;;;;4.95;4.30;;;23.40;28.50;;;;;;6221623;22;20623;-90
2021/07/02 13:13:16;;;;;;;6.72;6.13;;;23.40;26.40;;;;;;6213508;23;20222;-90
2021/07/02 13:16:09;;;;;;;3.85;3.55;;;23.50;29.60;;;;;;6243145;22;20921;-90
2021/07/02 13:18:38;;;;;;;4.28;3.88;;;23.40;25.00;;;;;;6246027;23;20256;-90
2021/07/02 13:21:08;;;;;;;9.73;5.78;;;23.30;28.00;;;;;;6244514;22;20196;-91
2021/07/02 13:23:38;;;;;;;4.85;3.55;;;23.50;27.10;;;;;;6245647;23;20207;-90
2021/07/02 13:26:11;;;;;;;4.15;3.75;;;23.60;27.20;;;;;;6247025;22;20268;-89
2021/07/02 13:28:40;;;;;;;4.57;3.83;;;23.70;26.90;;;;;;6246411;23;20248;-90
2021/07/02 13:31:26;;;;;;;4.57;3.83;;;23.80;26.40;;;;;;6192496;23;20599;-90
2021/07/02 13:34:05;;;;;;;3.88;3.58;;;23.60;25.80;;;;;;6245411;23;20168;-89
2021/07/02 13:36:35;;;;;;;4.00;3.58;;;23.60;25.30;;;;;;6217204;23;20224;-89
2021/07/02 13:39:05;;;;;;;3.60;3.30;;;23.60;26.10;;;;;;6244826;23;20854;-89
2021/07/02 13:41:32;;;;;;;4.03;3.58;;;23.70;26.30;;;;;;6242552;22;20576;-89
2021/07/02 13:44:01;;;;;;;3.60;3.30;;;23.40;27.10;;;;;;6244743;23;20555;-90
2021/07/02 13:46:29;;;;;;;4.00;3.60;;;23.50;27.40;;;;;;6242701;22;20232;-90
2021/07/02 13:48:57;;;;;;;4.30;3.55;;;23.40;26.70;;;;;;6242923;23;20272;-90
2021/07/02 13:51:24;;;;;;;5.45;3.75;;;23.10;26.50;;;;;;6241614;22;20248;-90
2021/07/02 13:53:53;;;;;;;4.68;3.63;;;23.00;28.80;;;;;;6215832;23;20676;-89
2021/07/02 13:56:21;;;;;;;4.68;4.28;;;23.00;28.30;;;;;;6239648;22;20205;-90
2021/07/02 13:58:48;;;;;;;3.58;3.30;;;23.00;27.00;;;;;;6243762;23;20252;-90
2021/07/02 14:01:16;;;;;;;3.70;3.40;;;22.90;28.00;;;;;;6216367;23;20233;-90
2021/07/02 14:03:45;;;;;;;4.57;3.42;;;22.80;28.90;;;;;;6242272;23;20187;-91
2021/07/02 14:06:14;;;;;;;8.05;3.53;;;22.90;29.20;;;;;;6242423;22;20208;-89
2021/07/02 14:08:43;;;;;;;4.97;3.28;;;22.80;28.80;;;;;;6221634;23;20173;-85
2021/07/02 14:11:12;;;;;;;4.63;3.20;;;22.80;27.50;;;;;;6245912;22;20672;-90
2021/07/02 14:13:39;;;;;;;3.53;3.22;;;22.80;28.40;;;;;;6244684;23;20207;-91
2021/07/02 14:16:07;;;;;;;3.70;3.40;;;22.90;28.00;;;;;;6246211;22;20668;-92
2021/07/02 14:18:34;;;;;;;3.45;3.15;;;23.00;28.30;;;;;;6243693;23;20506;-92
2021/07/02 14:21:04;;;;;;;3.60;3.28;;;23.30;27.60;;;;;;6236121;22;20270;-92
2021/07/02 14:23:31;;;;;;;4.43;3.40;;;23.30;25.90;;;;;;6245533;23;20173;-92
2021/07/02 14:25:58;;;;;;;3.45;3.10;;;23.30;26.70;;;;;;6245747;22;20243;-92
2021/07/02 14:31:08;;;;;;;3.40;3.17;;;23.50;27.50;;;;;;6243897;22;20201;-93
2021/07/02 14:33:38;;;;;;;3.45;3.15;;;23.30;27.30;;;;;;6219932;23;20276;-92
2021/07/02 14:36:06;;;;;;;4.00;3.13;;;23.10;26.40;;;;;;6219106;23;20707;-93
2021/07/02 14:38:33;;;;;;;4.65;3.08;;;23.10;26.40;;;;;;6218629;23;20347;-92
2021/07/02 14:41:00;;;;;;;4.45;3.38;;;23.40;27.00;;;;;;6247807;22;20237;-93
2021/07/02 14:43:30;;;;;;;4.68;3.45;;;23.50;26.70;;;;;;6241761;23;20645;-92
2021/07/02 14:46:17;;;;;;;4.65;3.20;;;23.50;25.70;;;;;;6244819;22;20252;-92
2021/07/02 14:48:44;;;;;;;5.05;3.28;;;23.60;25.50;;;;;;6220059;23;20181;-92
2021/07/02 14:54:00;;;;;;;3.80;3.50;;;23.70;26.00;;;;;;6208504;23;20767;-93
2021/07/02 14:56:34;;;;;;;3.80;3.50;;;23.60;25.40;;;;;;6253888;22;20211;-92
2021/07/02 15:01:44;;;;;;;3.53;3.05;;;23.60;25.60;;;;;;6213553;22;20633;-94
2021/07/02 15:04:11;;;;;;;3.50;3.20;;;23.60;25.10;;;;;;6248952;23;20300;-92
2021/07/02 15:06:38;;;;;;;4.97;3.00;;;23.50;26.10;;;;;;6248001;22;20505;-92
2021/07/02 15:09:05;;;;;;;3.58;2.92;;;23.40;24.70;;;;;;6248284;23;20176;-93
2021/07/02 15:11:32;;;;;;;3.40;3.10;;;23.20;24.30;;;;;;6246516;22;20316;-92
2021/07/02 15:22:06;;;;;;;3.35;3.15;;;22.80;25.40;;;;;;6238648;23;20165;-92
2021/07/02 15:27:13;;;;;;;3.47;3.17;;;22.70;27.40;;;;;;6230193;23;20173;-93
2021/07/02 15:30:17;;;;;;;3.10;2.80;;;22.80;28.30;;;;;;6258547;23;20173;-94
2021/07/02 15:38:07;;;;;;;3.67;3.22;;;23.00;27.70;;;;;;6213875;23;20181;-93
2021/07/02 15:40:34;;;;;;;4.22;3.33;;;23.00;26.50;;;;;;6253652;22;20233;-93
2021/07/02 15:45:48;;;;;;;5.57;3.67;;;22.90;26.40;;;;;;6243093;22;20201;-94
2021/07/02 16:03:23;;;;;;;4.25;3.30;;;22.60;27.60;;;;;;6212531;22;20209;-92
2021/07/02 16:05:50;;;;;;;3.53;3.22;;;22.70;27.30;;;;;;6252245;22;20201;-91
2021/07/02 16:08:18;;;;;;;4.82;3.50;;;22.60;28.40;;;;;;6249331;23;20243;-91
2021/07/02 16:10:45;;;;;;;3.92;3.28;;;22.50;27.40;;;;;;6249649;22;20279;-91
2021/07/02 16:13:22;;;;;;;3.50;3.20;;;22.30;28.10;;;;;;6250996;23;20193;-92
2021/07/02 16:15:49;;;;;;;3.58;3.25;;;22.10;28.20;;;;;;6254868;22;20216;-90
2021/07/02 16:18:16;;;;;;;5.35;3.45;;;21.80;28.90;;;;;;6258341;23;20208;-92
2021/07/02 16:20:43;;;;;;;4.20;3.80;;;21.70;29.00;;;;;;6249778;22;20205;-91
2021/07/02 16:23:10;;;;;;;4.22;3.83;;;21.80;30.60;;;;;;6254728;23;20174;-91
2021/07/02 16:28:23;;;;;;;5.95;5.43;;;22.00;29.30;;;;;;6168926;23;20225;-92
2021/07/02 16:34:31;;;;;;;6.25;4.07;;;22.00;28.20;;;;;;6248957;23;20149;-91